sensor_id;sensor_type;location;lat;lon;timestamp;temperature;humidity
78184;DHT22;67442;44.570;18.610;2023-08-06T00:00:50;25.40;55.20
78184;DHT22;67442;44.570;18.610;2023-08-06T00:03:17;25.40;55.20
78184;DHT22;67442;44.570;18.610;2023-08-06T00:05:45;25.40;55.20
78184;DHT22;67442;44.570;18.610;2023-08-06T00:08:12;25.40;55.20
78184;DHT22;67442;44.570;18.610;2023-08-06T00:10:40;25.40;55.20
78184;DHT22;67442;44.570;18.610;2023-08-06T00:13:10;25.40;55.20
78184;DHT22;67442;44.570;18.610;2023-08-06T00:15:37;25.40;55.20
78184;DHT22;67442;44.570;18.610;2023-08-06T00:18:04;25.40;55.10
78184;DHT22;67442;44.570;18.610;2023-08-06T00:20:38;25.40;55.10
78184;DHT22;67442;44.570;18.610;2023-08-06T00:23:06;25.40;55.10
78184;DHT22;67442;44.570;18.610;2023-08-06T00:25:32;25.40;55.10
78184;DHT22;67442;44.570;18.610;2023-08-06T00:27:59;25.40;55.10
78184;DHT22;67442;44.570;18.610;2023-08-06T00:30:27;25.40;55.10
78184;DHT22;67442;44.570;18.610;2023-08-06T00:32:58;25.30;55.00
78184;DHT22;67442;44.570;18.610;2023-08-06T00:35:25;25.40;55.00
78184;DHT22;67442;44.570;18.610;2023-08-06T00:37:52;25.30;55.00
78184;DHT22;67442;44.570;18.610;2023-08-06T00:40:23;25.40;55.00
78184;DHT22;67442;44.570;18.610;2023-08-06T00:42:54;25.40;55.00
78184;DHT22;67442;44.570;18.610;2023-08-06T00:45:21;25.40;55.00
78184;DHT22;67442;44.570;18.610;2023-08-06T00:47:49;25.30;54.90
78184;DHT22;67442;44.570;18.610;2023-08-06T00:50:17;25.30;54.90
78184;DHT22;67442;44.570;18.610;2023-08-06T00:52:45;25.30;54.90
78184;DHT22;67442;44.570;18.610;2023-08-06T00:55:12;25.30;54.80
78184;DHT22;67442;44.570;18.610;2023-08-06T00:57:39;25.30;54.80
78184;DHT22;67442;44.570;18.610;2023-08-06T01:00:08;25.30;54.80
78184;DHT22;67442;44.570;18.610;2023-08-06T01:02:37;25.30;54.80
78184;DHT22;67442;44.570;18.610;2023-08-06T01:05:04;25.30;54.80
78184;DHT22;67442;44.570;18.610;2023-08-06T01:08:12;25.30;54.80
78184;DHT22;67442;44.570;18.610;2023-08-06T01:13:26;25.30;54.70
78184;DHT22;67442;44.570;18.610;2023-08-06T01:15:55;25.30;54.70
78184;DHT22;67442;44.570;18.610;2023-08-06T01:18:27;25.30;54.80
78184;DHT22;67442;44.570;18.610;2023-08-06T01:20:54;25.30;54.70
78184;DHT22;67442;44.570;18.610;2023-08-06T01:23:22;25.20;54.60
78184;DHT22;67442;44.570;18.610;2023-08-06T01:29:23;25.30;54.60
78184;DHT22;67442;44.570;18.610;2023-08-06T01:31:50;25.30;54.60
78184;DHT22;67442;44.570;18.610;2023-08-06T01:34:22;25.30;54.60
78184;DHT22;67442;44.570;18.610;2023-08-06T01:36:50;25.30;54.50
78184;DHT22;67442;44.570;18.610;2023-08-06T01:39:18;25.30;54.50
78184;DHT22;67442;44.570;18.610;2023-08-06T01:42:07;25.30;54.50
78184;DHT22;67442;44.570;18.610;2023-08-06T01:44:39;25.20;55.10
78184;DHT22;67442;44.570;18.610;2023-08-06T01:47:06;25.20;54.50
78184;DHT22;67442;44.570;18.610;2023-08-06T01:49:33;25.30;54.50
78184;DHT22;67442;44.570;18.610;2023-08-06T01:52:00;25.20;54.40
78184;DHT22;67442;44.570;18.610;2023-08-06T01:54:27;25.20;54.40
78184;DHT22;67442;44.570;18.610;2023-08-06T01:56:55;25.20;54.40
78184;DHT22;67442;44.570;18.610;2023-08-06T01:59:22;25.20;54.30
78184;DHT22;67442;44.570;18.610;2023-08-06T02:01:49;25.20;54.30
78184;DHT22;67442;44.570;18.610;2023-08-06T02:04:16;25.20;54.30
78184;DHT22;67442;44.570;18.610;2023-08-06T02:06:44;25.20;54.30
78184;DHT22;67442;44.570;18.610;2023-08-06T02:09:11;25.20;54.30
78184;DHT22;67442;44.570;18.610;2023-08-06T02:11:42;25.20;54.20
78184;DHT22;67442;44.570;18.610;2023-08-06T02:14:13;25.20;54.20
78184;DHT22;67442;44.570;18.610;2023-08-06T02:16:40;25.20;54.20
78184;DHT22;67442;44.570;18.610;2023-08-06T02:19:07;25.20;54.30
78184;DHT22;67442;44.570;18.610;2023-08-06T02:21:34;25.20;54.80
78184;DHT22;67442;44.570;18.610;2023-08-06T02:24:01;25.20;54.20
78184;DHT22;67442;44.570;18.610;2023-08-06T02:26:28;25.20;54.20
78184;DHT22;67442;44.570;18.610;2023-08-06T02:28:55;25.20;54.20
78184;DHT22;67442;44.570;18.610;2023-08-06T02:31:22;25.20;54.20
78184;DHT22;67442;44.570;18.610;2023-08-06T02:33:50;25.20;54.20
78184;DHT22;67442;44.570;18.610;2023-08-06T02:36:17;25.20;54.10
78184;DHT22;67442;44.570;18.610;2023-08-06T02:38:44;25.20;54.80
78184;DHT22;67442;44.570;18.610;2023-08-06T02:41:12;25.10;54.00
78184;DHT22;67442;44.570;18.610;2023-08-06T02:43:39;25.20;54.00
78184;DHT22;67442;44.570;18.610;2023-08-06T02:46:06;25.10;54.00
78184;DHT22;67442;44.570;18.610;2023-08-06T02:48:38;25.10;54.00
78184;DHT22;67442;44.570;18.610;2023-08-06T02:51:05;25.10;54.00
78184;DHT22;67442;44.570;18.610;2023-08-06T02:53:36;25.10;54.00
78184;DHT22;67442;44.570;18.610;2023-08-06T02:56:04;25.10;54.00
78184;DHT22;67442;44.570;18.610;2023-08-06T02:58:31;25.10;53.90
78184;DHT22;67442;44.570;18.610;2023-08-06T03:01:03;25.10;53.90
78184;DHT22;67442;44.570;18.610;2023-08-06T03:03:34;25.10;53.90
78184;DHT22;67442;44.570;18.610;2023-08-06T03:06:05;25.10;53.90
78184;DHT22;67442;44.570;18.610;2023-08-06T03:08:32;25.10;53.90
78184;DHT22;67442;44.570;18.610;2023-08-06T03:10:59;25.10;53.90
78184;DHT22;67442;44.570;18.610;2023-08-06T03:13:27;25.10;53.80
78184;DHT22;67442;44.570;18.610;2023-08-06T03:15:58;25.10;53.80
78184;DHT22;67442;44.570;18.610;2023-08-06T03:18:26;25.10;53.80
78184;DHT22;67442;44.570;18.610;2023-08-06T03:20:53;25.10;53.80
78184;DHT22;67442;44.570;18.610;2023-08-06T03:23:20;25.10;53.70
78184;DHT22;67442;44.570;18.610;2023-08-06T03:25:46;25.10;53.70
78184;DHT22;67442;44.570;18.610;2023-08-06T03:28:13;25.10;53.70
78184;DHT22;67442;44.570;18.610;2023-08-06T03:30:41;25.10;53.70
78184;DHT22;67442;44.570;18.610;2023-08-06T03:33:08;25.10;53.80
78184;DHT22;67442;44.570;18.610;2023-08-06T03:35:39;25.10;53.70
78184;DHT22;67442;44.570;18.610;2023-08-06T03:38:06;25.10;53.70
78184;DHT22;67442;44.570;18.610;2023-08-06T03:40:35;25.10;53.70
78184;DHT22;67442;44.570;18.610;2023-08-06T03:43:02;25.10;53.70
78184;DHT22;67442;44.570;18.610;2023-08-06T03:45:29;25.10;53.70
78184;DHT22;67442;44.570;18.610;2023-08-06T03:47:56;25.10;53.70
78184;DHT22;67442;44.570;18.610;2023-08-06T03:50:23;25.10;53.70
78184;DHT22;67442;44.570;18.610;2023-08-06T03:52:51;25.10;53.60
78184;DHT22;67442;44.570;18.610;2023-08-06T03:55:18;25.10;53.60
78184;DHT22;67442;44.570;18.610;2023-08-06T03:57:45;25.10;53.60
78184;DHT22;67442;44.570;18.610;2023-08-06T04:00:13;25.10;53.60
78184;DHT22;67442;44.570;18.610;2023-08-06T04:02:40;25.10;53.60
78184;DHT22;67442;44.570;18.610;2023-08-06T04:05:08;25.10;53.70
78184;DHT22;67442;44.570;18.610;2023-08-06T04:07:36;25.00;53.50
78184;DHT22;67442;44.570;18.610;2023-08-06T04:10:05;25.10;53.60
78184;DHT22;67442;44.570;18.610;2023-08-06T04:12:31;25.00;53.60
78184;DHT22;67442;44.570;18.610;2023-08-06T04:15:03;25.00;53.50
78184;DHT22;67442;44.570;18.610;2023-08-06T04:17:30;25.00;53.50
78184;DHT22;67442;44.570;18.610;2023-08-06T04:19:57;25.00;53.50
78184;DHT22;67442;44.570;18.610;2023-08-06T04:22:25;25.00;53.50
78184;DHT22;67442;44.570;18.610;2023-08-06T04:24:51;25.00;53.50
78184;DHT22;67442;44.570;18.610;2023-08-06T04:27:18;25.00;53.40
78184;DHT22;67442;44.570;18.610;2023-08-06T04:29:49;25.00;53.40
78184;DHT22;67442;44.570;18.610;2023-08-06T04:32:20;25.00;53.40
78184;DHT22;67442;44.570;18.610;2023-08-06T04:34:47;25.00;53.40
78184;DHT22;67442;44.570;18.610;2023-08-06T04:37:14;25.00;53.40
78184;DHT22;67442;44.570;18.610;2023-08-06T04:39:45;25.00;53.40
78184;DHT22;67442;44.570;18.610;2023-08-06T04:42:17;25.00;53.30
78184;DHT22;67442;44.570;18.610;2023-08-06T04:44:44;25.00;53.40
78184;DHT22;67442;44.570;18.610;2023-08-06T04:47:11;25.00;53.40
78184;DHT22;67442;44.570;18.610;2023-08-06T04:49:38;25.00;53.30
78184;DHT22;67442;44.570;18.610;2023-08-06T04:52:06;25.00;53.30
78184;DHT22;67442;44.570;18.610;2023-08-06T04:54:34;25.00;53.30
78184;DHT22;67442;44.570;18.610;2023-08-06T04:57:02;25.00;53.30
78184;DHT22;67442;44.570;18.610;2023-08-06T04:59:30;25.00;53.30
78184;DHT22;67442;44.570;18.610;2023-08-06T05:01:58;25.00;53.20
78184;DHT22;67442;44.570;18.610;2023-08-06T05:04:25;25.00;53.20
78184;DHT22;67442;44.570;18.610;2023-08-06T05:06:52;25.00;53.80
78184;DHT22;67442;44.570;18.610;2023-08-06T05:09:19;24.90;53.20
78184;DHT22;67442;44.570;18.610;2023-08-06T05:11:49;24.90;53.10
78184;DHT22;67442;44.570;18.610;2023-08-06T05:14:16;24.90;53.10
78184;DHT22;67442;44.570;18.610;2023-08-06T05:16:44;25.00;53.20
78184;DHT22;67442;44.570;18.610;2023-08-06T05:19:11;24.90;53.10
78184;DHT22;67442;44.570;18.610;2023-08-06T05:21:42;24.90;53.10
78184;DHT22;67442;44.570;18.610;2023-08-06T05:24:09;24.90;53.10
78184;DHT22;67442;44.570;18.610;2023-08-06T05:26:36;24.90;53.10
78184;DHT22;67442;44.570;18.610;2023-08-06T05:29:03;24.90;53.00
78184;DHT22;67442;44.570;18.610;2023-08-06T05:31:30;24.90;53.00
78184;DHT22;67442;44.570;18.610;2023-08-06T05:33:57;24.90;53.00
78184;DHT22;67442;44.570;18.610;2023-08-06T05:36:28;24.90;53.00
78184;DHT22;67442;44.570;18.610;2023-08-06T05:38:55;24.90;53.00
78184;DHT22;67442;44.570;18.610;2023-08-06T05:41:22;24.90;53.00
78184;DHT22;67442;44.570;18.610;2023-08-06T05:43:49;24.90;53.00
78184;DHT22;67442;44.570;18.610;2023-08-06T05:46:20;24.90;53.70
78184;DHT22;67442;44.570;18.610;2023-08-06T05:48:48;24.90;53.70
78184;DHT22;67442;44.570;18.610;2023-08-06T05:51:17;24.90;53.00
78184;DHT22;67442;44.570;18.610;2023-08-06T05:53:45;24.90;53.00
78184;DHT22;67442;44.570;18.610;2023-08-06T05:56:13;24.90;53.00
78184;DHT22;67442;44.570;18.610;2023-08-06T05:58:41;24.90;53.00
78184;DHT22;67442;44.570;18.610;2023-08-06T06:01:08;24.90;52.90
78184;DHT22;67442;44.570;18.610;2023-08-06T06:03:36;24.90;52.90
78184;DHT22;67442;44.570;18.610;2023-08-06T06:06:07;24.90;52.90
78184;DHT22;67442;44.570;18.610;2023-08-06T06:08:38;24.90;53.00
78184;DHT22;67442;44.570;18.610;2023-08-06T06:11:06;24.90;52.90
78184;DHT22;67442;44.570;18.610;2023-08-06T06:13:33;24.90;52.90
78184;DHT22;67442;44.570;18.610;2023-08-06T06:16:00;24.90;52.90
78184;DHT22;67442;44.570;18.610;2023-08-06T06:18:27;24.90;52.90
78184;DHT22;67442;44.570;18.610;2023-08-06T06:20:58;24.90;52.90
78184;DHT22;67442;44.570;18.610;2023-08-06T06:23:25;24.90;52.90
78184;DHT22;67442;44.570;18.610;2023-08-06T06:25:52;24.90;52.90
78184;DHT22;67442;44.570;18.610;2023-08-06T06:28:19;24.90;53.20
78184;DHT22;67442;44.570;18.610;2023-08-06T06:30:47;24.90;53.40
78184;DHT22;67442;44.570;18.610;2023-08-06T06:33:14;24.90;53.70
78184;DHT22;67442;44.570;18.610;2023-08-06T06:35:46;24.90;54.00
78184;DHT22;67442;44.570;18.610;2023-08-06T06:38:13;24.90;54.20
78184;DHT22;67442;44.570;18.610;2023-08-06T06:40:40;24.90;54.40
78184;DHT22;67442;44.570;18.610;2023-08-06T06:43:11;25.00;54.50
78184;DHT22;67442;44.570;18.610;2023-08-06T06:45:38;25.00;54.60
78184;DHT22;67442;44.570;18.610;2023-08-06T06:48:06;25.00;54.60
78184;DHT22;67442;44.570;18.610;2023-08-06T06:50:33;25.00;54.60
78184;DHT22;67442;44.570;18.610;2023-08-06T06:53:02;25.10;54.70
78184;DHT22;67442;44.570;18.610;2023-08-06T06:55:29;25.10;54.70
78184;DHT22;67442;44.570;18.610;2023-08-06T06:58:00;25.10;54.70
78184;DHT22;67442;44.570;18.610;2023-08-06T07:00:27;25.10;54.70
78184;DHT22;67442;44.570;18.610;2023-08-06T07:02:58;25.10;54.70
78184;DHT22;67442;44.570;18.610;2023-08-06T07:05:25;25.20;54.80
78184;DHT22;67442;44.570;18.610;2023-08-06T07:07:53;25.20;56.30
78184;DHT22;67442;44.570;18.610;2023-08-06T07:10:24;25.10;56.20
78184;DHT22;67442;44.570;18.610;2023-08-06T07:12:55;25.20;55.80
78184;DHT22;67442;44.570;18.610;2023-08-06T07:15:22;25.20;55.50
78184;DHT22;67442;44.570;18.610;2023-08-06T07:17:49;25.20;55.40
78184;DHT22;67442;44.570;18.610;2023-08-06T07:20:17;25.20;55.30
78184;DHT22;67442;44.570;18.610;2023-08-06T07:22:44;25.30;55.40
78184;DHT22;67442;44.570;18.610;2023-08-06T07:25:11;25.30;55.20
78184;DHT22;67442;44.570;18.610;2023-08-06T07:27:38;25.30;55.20
78184;DHT22;67442;44.570;18.610;2023-08-06T07:30:07;25.40;55.20
78184;DHT22;67442;44.570;18.610;2023-08-06T07:32:35;25.40;55.20
78184;DHT22;67442;44.570;18.610;2023-08-06T07:35:02;25.40;55.90
78184;DHT22;67442;44.570;18.610;2023-08-06T07:37:29;25.40;55.30
78184;DHT22;67442;44.570;18.610;2023-08-06T07:39:57;25.40;55.40
78184;DHT22;67442;44.570;18.610;2023-08-06T07:42:23;25.40;55.60
78184;DHT22;67442;44.570;18.610;2023-08-06T07:44:58;25.40;55.70
78184;DHT22;67442;44.570;18.610;2023-08-06T07:47:29;25.40;55.80
78184;DHT22;67442;44.570;18.610;2023-08-06T07:49:57;25.40;55.90
78184;DHT22;67442;44.570;18.610;2023-08-06T07:52:23;25.40;55.90
78184;DHT22;67442;44.570;18.610;2023-08-06T07:54:50;25.50;56.80
78184;DHT22;67442;44.570;18.610;2023-08-06T07:57:18;25.50;56.20
78184;DHT22;67442;44.570;18.610;2023-08-06T07:59:45;25.50;56.30
78184;DHT22;67442;44.570;18.610;2023-08-06T08:02:12;25.50;56.40
78184;DHT22;67442;44.570;18.610;2023-08-06T08:04:40;25.50;56.40
78184;DHT22;67442;44.570;18.610;2023-08-06T08:07:11;25.50;56.60
78184;DHT22;67442;44.570;18.610;2023-08-06T08:09:38;25.50;57.40
78184;DHT22;67442;44.570;18.610;2023-08-06T08:12:06;25.50;57.30
78184;DHT22;67442;44.570;18.610;2023-08-06T08:14:33;25.50;57.70
78184;DHT22;67442;44.570;18.610;2023-08-06T08:17:06;25.60;57.60
78184;DHT22;67442;44.570;18.610;2023-08-06T08:19:33;25.60;57.30
78184;DHT22;67442;44.570;18.610;2023-08-06T08:22:01;25.50;57.20
78184;DHT22;67442;44.570;18.610;2023-08-06T08:24:28;25.60;57.50
78184;DHT22;67442;44.570;18.610;2023-08-06T08:26:59;25.60;57.50
78184;DHT22;67442;44.570;18.610;2023-08-06T08:29:27;25.60;57.40
78184;DHT22;67442;44.570;18.610;2023-08-06T08:31:58;25.60;57.40
78184;DHT22;67442;44.570;18.610;2023-08-06T08:34:25;25.60;57.60
78184;DHT22;67442;44.570;18.610;2023-08-06T08:36:56;25.60;57.40
78184;DHT22;67442;44.570;18.610;2023-08-06T08:39:25;25.60;57.60
78184;DHT22;67442;44.570;18.610;2023-08-06T08:41:52;25.60;57.40
78184;DHT22;67442;44.570;18.610;2023-08-06T08:44:19;25.60;57.70
78184;DHT22;67442;44.570;18.610;2023-08-06T08:46:47;25.60;58.10
78184;DHT22;67442;44.570;18.610;2023-08-06T08:49:18;25.60;58.20
78184;DHT22;67442;44.570;18.610;2023-08-06T08:51:48;25.60;58.30
78184;DHT22;67442;44.570;18.610;2023-08-06T08:54:16;25.70;58.50
78184;DHT22;67442;44.570;18.610;2023-08-06T08:56:44;25.60;58.30
78184;DHT22;67442;44.570;18.610;2023-08-06T08:59:12;25.60;58.80
78184;DHT22;67442;44.570;18.610;2023-08-06T09:01:40;25.60;57.90
78184;DHT22;67442;44.570;18.610;2023-08-06T09:04:11;25.60;58.10
78184;DHT22;67442;44.570;18.610;2023-08-06T09:06:40;25.60;58.00
78184;DHT22;67442;44.570;18.610;2023-08-06T09:09:22;25.60;58.10
78184;DHT22;67442;44.570;18.610;2023-08-06T09:11:51;25.60;58.20
78184;DHT22;67442;44.570;18.610;2023-08-06T09:14:19;25.60;58.50
78184;DHT22;67442;44.570;18.610;2023-08-06T09:16:47;25.60;58.10
78184;DHT22;67442;44.570;18.610;2023-08-06T09:19:14;25.60;57.80
78184;DHT22;67442;44.570;18.610;2023-08-06T09:21:44;25.60;58.00
78184;DHT22;67442;44.570;18.610;2023-08-06T09:24:14;25.60;57.90
78184;DHT22;67442;44.570;18.610;2023-08-06T09:26:43;25.60;57.90
78184;DHT22;67442;44.570;18.610;2023-08-06T09:29:11;25.60;57.90
78184;DHT22;67442;44.570;18.610;2023-08-06T09:31:45;25.60;57.60
78184;DHT22;67442;44.570;18.610;2023-08-06T09:34:19;25.60;57.50
78184;DHT22;67442;44.570;18.610;2023-08-06T09:37:10;25.60;57.60
78184;DHT22;67442;44.570;18.610;2023-08-06T09:39:53;25.60;57.60
78184;DHT22;67442;44.570;18.610;2023-08-06T09:42:28;25.60;57.60
78184;DHT22;67442;44.570;18.610;2023-08-06T09:45:06;25.70;57.60
78184;DHT22;67442;44.570;18.610;2023-08-06T09:47:36;25.70;57.50
78184;DHT22;67442;44.570;18.610;2023-08-06T09:50:03;25.60;57.40
78184;DHT22;67442;44.570;18.610;2023-08-06T09:52:34;25.70;57.50
78184;DHT22;67442;44.570;18.610;2023-08-06T09:55:02;25.60;57.50
78184;DHT22;67442;44.570;18.610;2023-08-06T09:57:31;25.60;57.50
78184;DHT22;67442;44.570;18.610;2023-08-06T09:59:58;25.60;57.60
78184;DHT22;67442;44.570;18.610;2023-08-06T10:02:29;25.60;57.60
78184;DHT22;67442;44.570;18.610;2023-08-06T10:04:58;25.70;57.70
78184;DHT22;67442;44.570;18.610;2023-08-06T10:07:26;25.70;57.70
78184;DHT22;67442;44.570;18.610;2023-08-06T10:09:54;25.70;57.80
78184;DHT22;67442;44.570;18.610;2023-08-06T10:12:22;25.70;57.80
78184;DHT22;67442;44.570;18.610;2023-08-06T10:14:54;25.70;57.80
78184;DHT22;67442;44.570;18.610;2023-08-06T10:17:22;25.70;57.80
78184;DHT22;67442;44.570;18.610;2023-08-06T10:19:54;25.70;57.90
78184;DHT22;67442;44.570;18.610;2023-08-06T10:22:25;25.70;57.80
78184;DHT22;67442;44.570;18.610;2023-08-06T10:24:57;25.70;57.90
78184;DHT22;67442;44.570;18.610;2023-08-06T10:30:26;25.80;58.20
78184;DHT22;67442;44.570;18.610;2023-08-06T10:35:30;25.80;58.10
78184;DHT22;67442;44.570;18.610;2023-08-06T10:38:21;25.80;58.00
78184;DHT22;67442;44.570;18.610;2023-08-06T10:43:34;25.80;58.00
78184;DHT22;67442;44.570;18.610;2023-08-06T10:46:03;25.80;58.00
78184;DHT22;67442;44.570;18.610;2023-08-06T10:48:41;25.80;58.00
78184;DHT22;67442;44.570;18.610;2023-08-06T10:51:09;25.80;58.00
78184;DHT22;67442;44.570;18.610;2023-08-06T10:53:38;25.80;57.90
78184;DHT22;67442;44.570;18.610;2023-08-06T10:56:24;25.80;58.00
78184;DHT22;67442;44.570;18.610;2023-08-06T10:58:53;25.80;58.00
78184;DHT22;67442;44.570;18.610;2023-08-06T11:01:22;25.80;58.00
78184;DHT22;67442;44.570;18.610;2023-08-06T11:03:49;25.80;58.00
78184;DHT22;67442;44.570;18.610;2023-08-06T11:06:18;25.80;57.90
78184;DHT22;67442;44.570;18.610;2023-08-06T11:08:55;25.80;57.90
78184;DHT22;67442;44.570;18.610;2023-08-06T11:11:23;25.80;57.90
78184;DHT22;67442;44.570;18.610;2023-08-06T11:13:50;25.80;57.90
78184;DHT22;67442;44.570;18.610;2023-08-06T11:16:23;25.80;57.90
78184;DHT22;67442;44.570;18.610;2023-08-06T11:18:53;25.80;57.90
78184;DHT22;67442;44.570;18.610;2023-08-06T11:21:25;25.80;57.90
78184;DHT22;67442;44.570;18.610;2023-08-06T11:23:53;25.80;57.90
78184;DHT22;67442;44.570;18.610;2023-08-06T11:26:21;25.80;57.80
78184;DHT22;67442;44.570;18.610;2023-08-06T11:28:49;25.80;57.80
78184;DHT22;67442;44.570;18.610;2023-08-06T11:31:23;25.80;57.80
78184;DHT22;67442;44.570;18.610;2023-08-06T11:33:54;25.80;57.80
78184;DHT22;67442;44.570;18.610;2023-08-06T11:36:33;25.80;57.80
78184;DHT22;67442;44.570;18.610;2023-08-06T11:39:01;25.80;57.70
78184;DHT22;67442;44.570;18.610;2023-08-06T11:41:29;25.80;57.70
78184;DHT22;67442;44.570;18.610;2023-08-06T11:43:56;25.80;57.80
78184;DHT22;67442;44.570;18.610;2023-08-06T11:46:23;25.80;57.70
78184;DHT22;67442;44.570;18.610;2023-08-06T11:48:54;25.80;57.70
78184;DHT22;67442;44.570;18.610;2023-08-06T11:51:44;25.80;57.70
78184;DHT22;67442;44.570;18.610;2023-08-06T11:54:15;25.80;57.70
78184;DHT22;67442;44.570;18.610;2023-08-06T11:56:43;25.90;57.80
78184;DHT22;67442;44.570;18.610;2023-08-06T11:59:10;25.80;57.70
78184;DHT22;67442;44.570;18.610;2023-08-06T12:01:38;25.90;57.80
78184;DHT22;67442;44.570;18.610;2023-08-06T12:04:05;25.80;57.80
78184;DHT22;67442;44.570;18.610;2023-08-06T12:06:42;25.80;57.80
78184;DHT22;67442;44.570;18.610;2023-08-06T12:09:10;25.80;57.80
78184;DHT22;67442;44.570;18.610;2023-08-06T12:11:41;25.80;57.80
78184;DHT22;67442;44.570;18.610;2023-08-06T12:14:12;25.80;57.70
78184;DHT22;67442;44.570;18.610;2023-08-06T12:16:43;25.80;57.70
78184;DHT22;67442;44.570;18.610;2023-08-06T12:19:10;25.90;57.80
78184;DHT22;67442;44.570;18.610;2023-08-06T12:21:37;25.90;57.80
78184;DHT22;67442;44.570;18.610;2023-08-06T12:24:05;25.90;57.90
78184;DHT22;67442;44.570;18.610;2023-08-06T12:26:34;25.90;57.80
78184;DHT22;67442;44.570;18.610;2023-08-06T12:29:01;25.90;57.90
78184;DHT22;67442;44.570;18.610;2023-08-06T12:31:28;25.80;57.80
78184;DHT22;67442;44.570;18.610;2023-08-06T12:33:59;25.90;57.90
78184;DHT22;67442;44.570;18.610;2023-08-06T12:36:26;25.90;57.90
78184;DHT22;67442;44.570;18.610;2023-08-06T12:38:54;25.90;57.90
78184;DHT22;67442;44.570;18.610;2023-08-06T12:41:21;25.90;57.90
78184;DHT22;67442;44.570;18.610;2023-08-06T12:43:48;25.90;57.90
78184;DHT22;67442;44.570;18.610;2023-08-06T12:46:19;25.90;58.00
78184;DHT22;67442;44.570;18.610;2023-08-06T12:48:47;25.90;58.00
78184;DHT22;67442;44.570;18.610;2023-08-06T12:51:15;25.90;58.00
78184;DHT22;67442;44.570;18.610;2023-08-06T12:53:42;25.90;58.00
78184;DHT22;67442;44.570;18.610;2023-08-06T12:56:09;25.90;58.10
78184;DHT22;67442;44.570;18.610;2023-08-06T12:58:36;25.90;58.10
78184;DHT22;67442;44.570;18.610;2023-08-06T13:01:05;25.90;58.10
78184;DHT22;67442;44.570;18.610;2023-08-06T13:03:36;25.90;58.20
78184;DHT22;67442;44.570;18.610;2023-08-06T13:06:04;25.90;58.20
78184;DHT22;67442;44.570;18.610;2023-08-06T13:08:31;25.90;58.30
78184;DHT22;67442;44.570;18.610;2023-08-06T13:10:58;25.90;58.40
78184;DHT22;67442;44.570;18.610;2023-08-06T13:13:29;25.90;58.40
78184;DHT22;67442;44.570;18.610;2023-08-06T13:15:56;25.90;58.40
78184;DHT22;67442;44.570;18.610;2023-08-06T13:18:24;25.90;58.40
78184;DHT22;67442;44.570;18.610;2023-08-06T13:20:53;25.90;58.40
78184;DHT22;67442;44.570;18.610;2023-08-06T13:23:21;26.00;58.50
78184;DHT22;67442;44.570;18.610;2023-08-06T13:25:53;25.90;58.40
78184;DHT22;67442;44.570;18.610;2023-08-06T13:28:23;26.00;58.60
78184;DHT22;67442;44.570;18.610;2023-08-06T13:30:52;25.90;58.60
78184;DHT22;67442;44.570;18.610;2023-08-06T13:33:20;25.90;58.60
78184;DHT22;67442;44.570;18.610;2023-08-06T13:35:47;25.90;58.60
78184;DHT22;67442;44.570;18.610;2023-08-06T13:38:15;25.90;58.70
78184;DHT22;67442;44.570;18.610;2023-08-06T13:40:43;26.00;58.90
78184;DHT22;67442;44.570;18.610;2023-08-06T13:43:11;26.00;58.90
78184;DHT22;67442;44.570;18.610;2023-08-06T13:45:38;26.00;59.00
78184;DHT22;67442;44.570;18.610;2023-08-06T13:48:05;25.90;58.90
78184;DHT22;67442;44.570;18.610;2023-08-06T13:50:32;26.00;59.20
78184;DHT22;67442;44.570;18.610;2023-08-06T13:53:00;26.00;59.20
78184;DHT22;67442;44.570;18.610;2023-08-06T13:55:28;26.00;59.30
78184;DHT22;67442;44.570;18.610;2023-08-06T13:57:59;26.00;59.50
78184;DHT22;67442;44.570;18.610;2023-08-06T14:00:26;26.00;59.50
78184;DHT22;67442;44.570;18.610;2023-08-06T14:02:53;26.00;59.50
78184;DHT22;67442;44.570;18.610;2023-08-06T14:05:20;26.00;59.50
78184;DHT22;67442;44.570;18.610;2023-08-06T14:07:47;26.00;59.40
78184;DHT22;67442;44.570;18.610;2023-08-06T14:10:15;26.00;59.50
78184;DHT22;67442;44.570;18.610;2023-08-06T14:12:43;26.00;59.60
78184;DHT22;67442;44.570;18.610;2023-08-06T14:15:10;26.00;59.60
78184;DHT22;67442;44.570;18.610;2023-08-06T14:17:37;26.00;59.80
78184;DHT22;67442;44.570;18.610;2023-08-06T14:20:04;26.00;60.30
78184;DHT22;67442;44.570;18.610;2023-08-06T14:22:35;26.00;60.20
78184;DHT22;67442;44.570;18.610;2023-08-06T14:25:07;26.00;63.40
78184;DHT22;67442;44.570;18.610;2023-08-06T14:27:35;26.10;64.10
78184;DHT22;67442;44.570;18.610;2023-08-06T14:30:24;26.10;63.40
78184;DHT22;67442;44.570;18.610;2023-08-06T14:32:51;26.10;65.10
78184;DHT22;67442;44.570;18.610;2023-08-06T14:35:18;26.20;64.50
78184;DHT22;67442;44.570;18.610;2023-08-06T14:37:45;24.30;62.20
78184;DHT22;67442;44.570;18.610;2023-08-06T14:40:12;26.20;63.80
78184;DHT22;67442;44.570;18.610;2023-08-06T14:42:38;26.20;74.50
78184;DHT22;67442;44.570;18.610;2023-08-06T14:45:07;26.10;62.10
78184;DHT22;67442;44.570;18.610;2023-08-06T14:47:35;26.20;62.20
78184;DHT22;67442;44.570;18.610;2023-08-06T14:50:06;26.20;62.10
78184;DHT22;67442;44.570;18.610;2023-08-06T14:52:33;26.20;62.30
78184;DHT22;67442;44.570;18.610;2023-08-06T14:55:01;26.10;61.80
78184;DHT22;67442;44.570;18.610;2023-08-06T14:57:30;26.10;61.70
78184;DHT22;67442;44.570;18.610;2023-08-06T15:00:01;26.00;61.60
78184;DHT22;67442;44.570;18.610;2023-08-06T15:02:32;26.10;61.70
78184;DHT22;67442;44.570;18.610;2023-08-06T15:04:59;26.00;61.60
78184;DHT22;67442;44.570;18.610;2023-08-06T15:07:27;26.00;61.50
78184;DHT22;67442;44.570;18.610;2023-08-06T15:09:59;26.00;61.40
78184;DHT22;67442;44.570;18.610;2023-08-06T15:12:27;26.00;61.30
78184;DHT22;67442;44.570;18.610;2023-08-06T15:14:54;26.00;61.40
78184;DHT22;67442;44.570;18.610;2023-08-06T15:17:24;26.00;61.40
78184;DHT22;67442;44.570;18.610;2023-08-06T15:19:53;26.00;61.40
78184;DHT22;67442;44.570;18.610;2023-08-06T15:22:20;26.00;61.40
78184;DHT22;67442;44.570;18.610;2023-08-06T15:24:51;26.00;61.30
78184;DHT22;67442;44.570;18.610;2023-08-06T15:27:19;26.00;61.20
78184;DHT22;67442;44.570;18.610;2023-08-06T15:29:46;25.90;61.10
78184;DHT22;67442;44.570;18.610;2023-08-06T15:32:13;26.00;61.10
78184;DHT22;67442;44.570;18.610;2023-08-06T15:34:41;26.00;61.10
78184;DHT22;67442;44.570;18.610;2023-08-06T15:37:07;26.00;61.00
78184;DHT22;67442;44.570;18.610;2023-08-06T15:39:38;25.90;60.90